Skip Navigation Links
NOAA logo - Click to go to the NOAA homepage
NOAA's National Weather Service
Alaska Aviation Weather Unit
  NWS logo - Click to go to the NWS homepage
Left Navbar Graphic     21 AKDT = 05 GMT

   
NOAA is celebrating 200 years of science, service, and stewardship. Visit the NOAA 200th celebration Web site to learn more.
USA.gov is the U.S. Government's official Web portal to all Federal, state and local government Web resources and services.
Facebook
NWS on Facebook

Important Change Regarding the AAWU Web Presence

 

Over the last several months, the AAWU has been working to navigate its webpages to a nationally supported server. Security, as well as other needs, have necessitated the change.  In the process, we have made an effort to enhance the functionality of our website, as well as some of our products. As of June 27, 2017, aawu.arh.noaa.gov will be discontinued. The new AAWU web address is weather.gov/aawu. It is now live and will run in-parallel with the old site until it is discontinued. Please send any feedback or questions regarding the new webpages to nws.ar.aawu.webauthors@noaa.gov.  Thank you for your patience during this time of transition.
AAWU Home :: Display TAF Add Bookmark
TAF PAOR 250254Z 2503/2524 31008KT P6SM -SHRA SCT015 BKN040
      TEMPO 2503/2505 32010G20KT -TSRA BKN015CB
     FM250900 31006KT P6SM VCSH OVC050
     FM251500 VRB04KT P6SM BKN100=

PAOR 242351Z 32006KT 10SM SCT008 BKN070 BKN100 12/11 A3003= SPECI PAOR 242351Z 32006KT 10SM SCT008 BKN070 BKN100 12/11 A3003 RMK AO2= METAR PAOR 242353Z 30006KT 10SM SCT008 BKN070 BKN100 13/11 A3003= PAOR 250014Z 31007KT 10SM BKN008 13/11 A3003= SPECI PAOR 250014Z 31007KT 10SM BKN008 13/11 A3003 RMK AO2 CIG 006V011 T01280111= METAR PAOR 250053Z 31005KT 10SM -RA BKN010 BKN019 OVC039 13/12 A3003= PAOR 250103Z 30005KT 10SM SCT010 BKN019 OVC041 13/12 A3003= SPECI PAOR 250103Z 30005KT 10SM SCT010 BKN019 OVC041 13/12 A3003 RMK AO2 RAE0055 P0000 T01330117= PAOR 250115Z AUTO VRB04KT 10SM FEW014 SCT020 OVC041 13/12 A3002= PAOR 250129Z 00000KT 9SM -RA SCT009 BKN013 OVC045 13/12 A3002= SPECI PAOR 250129Z 00000KT 9SM -RA SCT009 BKN013 OVC045 13/12 A3002 RMK AO2 RAE0055B16 P0000 T01330117= METAR PAOR 250153Z 31009KT 7SM -RA BKN010 BKN015 OVC041 13/12 A3002= PAOR 250208Z AUTO 33008KT 8SM -RA SCT012 BKN022 OVC047 13/12 A3002= PAOR 250221Z AUTO 32006KT 10SM -RA SCT024 BKN039 OVC049 14/12 A3002= PAOR 250238Z AUTO 32010G14KT 10SM SCT015 BKN021 OVC049 14/12 A3001= METAR PAOR 250253Z AUTO 31007KT 7SM -RA SCT015 BKN023 OVC070 14/12 A3001= PAOR 250303Z AUTO 32007KT 10SM -RA SCT015 BKN070 OVC095 13/12 A3001= METAR PAOR 250353Z AUTO 31005KT 3SM -RA BR BKN060 OVC070 13/11 A3001= METAR PAOR 250453Z AUTO 32005KT 10SM OVC060 13/11 A3000=
 Alaska TAF Map

NOAA's National Weather Service
Alaska Aviation Weather Unit
6930 Sand Lake Road
Anchorage, AK 99502-1845
Disclaimer
Credits
Glossary
Privacy Policy
About Us
Career Opportunities
Contact AAWU Internet Services Site last modified: April, 17th 2012